Current Weather

Aswan Intl

Aswan Intl, Egypt (HESN)

Report from: Sunday, December 4, 2022 1:00 PM EET
Current time: Sunday, December 4, 2022 2:36 PM EET

Nearby weather
Weather history
Weather forecast

Temperature26.0°C (78.8°F)
Dew point5.0°C (41.0°F)
Winds 8 kts (4.1 m/s, 9.2 mph) North (360°)
Clouds Sky clear
Altimeter29.97 in.Hg (1015 mB)
Relative humidity26 %
Density altitude1,343 ft. (409 m)
Remarks Ceiling and visibility OK
No significant changes expected in the next two hours
Flight conditions Visual Meteorological Conditions
Raw dataHESN 041100Z 36008KT CAVOK 26/05 Q1015 NOSIG
An error has occurred. This application may no longer respond until reloaded. Reload 🗙